sensor_id;sensor_type;location;lat;lon;timestamp;P1;durP1;ratioP1;P2;durP2;ratioP2
18072;SDS011;9161;47.348;9.648;2023-04-03T00:02:49;0.37;;;0.37;;
18072;SDS011;9161;47.348;9.648;2023-04-03T00:07:52;0.30;;;0.30;;
18072;SDS011;9161;47.348;9.648;2023-04-03T00:12:54;0.67;;;0.50;;
18072;SDS011;9161;47.348;9.648;2023-04-03T00:18:00;0.50;;;0.40;;
18072;SDS011;9161;47.348;9.648;2023-04-03T00:23:02;0.50;;;0.40;;
18072;SDS011;9161;47.348;9.648;2023-04-03T00:28:04;0.53;;;0.50;;
18072;SDS011;9161;47.348;9.648;2023-04-03T00:33:08;0.87;;;0.60;;
18072;SDS011;9161;47.348;9.648;2023-04-03T00:38:12;0.83;;;0.60;;
18072;SDS011;9161;47.348;9.648;2023-04-03T00:43:15;1.43;;;0.90;;
18072;SDS011;9161;47.348;9.648;2023-04-03T00:48:22;1.70;;;0.53;;
18072;SDS011;9161;47.348;9.648;2023-04-03T00:53:30;0.50;;;0.50;;
18072;SDS011;9161;47.348;9.648;2023-04-03T00:58:36;0.60;;;0.60;;
18072;SDS011;9161;47.348;9.648;2023-04-03T01:03:42;0.83;;;0.63;;
18072;SDS011;9161;47.348;9.648;2023-04-03T01:08:44;1.03;;;0.60;;
18072;SDS011;9161;47.348;9.648;2023-04-03T01:13:48;0.70;;;0.60;;
18072;SDS011;9161;47.348;9.648;2023-04-03T01:18:51;1.67;;;1.07;;
18072;SDS011;9161;47.348;9.648;2023-04-03T01:23:58;2.40;;;1.17;;
18072;SDS011;9161;47.348;9.648;2023-04-03T01:29:08;1.87;;;0.97;;
18072;SDS011;9161;47.348;9.648;2023-04-03T01:34:13;1.20;;;1.00;;
18072;SDS011;9161;47.348;9.648;2023-04-03T01:39:15;1.20;;;0.90;;
18072;SDS011;9161;47.348;9.648;2023-04-03T01:44:17;1.97;;;1.43;;
18072;SDS011;9161;47.348;9.648;2023-04-03T01:49:21;2.33;;;1.67;;
18072;SDS011;9161;47.348;9.648;2023-04-03T01:54:24;1.77;;;1.27;;
18072;SDS011;9161;47.348;9.648;2023-04-03T01:59:26;2.53;;;1.40;;
18072;SDS011;9161;47.348;9.648;2023-04-03T02:04:29;2.80;;;1.70;;
18072;SDS011;9161;47.348;9.648;2023-04-03T02:09:32;2.23;;;1.70;;
18072;SDS011;9161;47.348;9.648;2023-04-03T02:14:34;2.83;;;2.13;;
18072;SDS011;9161;47.348;9.648;2023-04-03T02:19:38;3.53;;;2.47;;
18072;SDS011;9161;47.348;9.648;2023-04-03T02:24:40;3.00;;;2.33;;
18072;SDS011;9161;47.348;9.648;2023-04-03T02:29:42;4.10;;;2.70;;
18072;SDS011;9161;47.348;9.648;2023-04-03T02:34:45;3.83;;;2.67;;
18072;SDS011;9161;47.348;9.648;2023-04-03T02:39:48;4.63;;;2.90;;
18072;SDS011;9161;47.348;9.648;2023-04-03T02:44:50;4.07;;;2.90;;
18072;SDS011;9161;47.348;9.648;2023-04-03T02:49:53;5.07;;;3.50;;
18072;SDS011;9161;47.348;9.648;2023-04-03T02:54:56;6.30;;;3.60;;
18072;SDS011;9161;47.348;9.648;2023-04-03T02:59:57;5.07;;;3.60;;
18072;SDS011;9161;47.348;9.648;2023-04-03T03:05:01;6.07;;;3.70;;
18072;SDS011;9161;47.348;9.648;2023-04-03T03:10:04;5.80;;;3.63;;
18072;SDS011;9161;47.348;9.648;2023-04-03T03:15:07;6.43;;;3.57;;
18072;SDS011;9161;47.348;9.648;2023-04-03T03:20:12;5.70;;;3.80;;
18072;SDS011;9161;47.348;9.648;2023-04-03T03:25:15;6.20;;;3.93;;
18072;SDS011;9161;47.348;9.648;2023-04-03T03:30:18;5.50;;;3.63;;
18072;SDS011;9161;47.348;9.648;2023-04-03T03:35:21;6.57;;;4.00;;
18072;SDS011;9161;47.348;9.648;2023-04-03T03:40:24;8.10;;;4.90;;
18072;SDS011;9161;47.348;9.648;2023-04-03T03:45:26;6.97;;;4.47;;
18072;SDS011;9161;47.348;9.648;2023-04-03T03:50:29;8.00;;;4.67;;
18072;SDS011;9161;47.348;9.648;2023-04-03T03:55:32;8.57;;;4.83;;
18072;SDS011;9161;47.348;9.648;2023-04-03T04:00:35;7.23;;;4.73;;
18072;SDS011;9161;47.348;9.648;2023-04-03T04:05:39;9.07;;;4.80;;
18072;SDS011;9161;47.348;9.648;2023-04-03T04:10:41;8.77;;;4.83;;
18072;SDS011;9161;47.348;9.648;2023-04-03T04:15:43;8.47;;;4.60;;
18072;SDS011;9161;47.348;9.648;2023-04-03T04:20:47;8.60;;;5.03;;
18072;SDS011;9161;47.348;9.648;2023-04-03T04:25:50;8.47;;;5.13;;
18072;SDS011;9161;47.348;9.648;2023-04-03T04:30:52;9.07;;;5.30;;
18072;SDS011;9161;47.348;9.648;2023-04-03T04:35:56;9.60;;;5.67;;
18072;SDS011;9161;47.348;9.648;2023-04-03T04:40:58;9.77;;;5.70;;
18072;SDS011;9161;47.348;9.648;2023-04-03T04:46:01;7.90;;;5.23;;
18072;SDS011;9161;47.348;9.648;2023-04-03T04:51:06;10.63;;;6.07;;
18072;SDS011;9161;47.348;9.648;2023-04-03T04:56:08;10.00;;;5.40;;
18072;SDS011;9161;47.348;9.648;2023-04-03T05:01:11;11.97;;;5.90;;
18072;SDS011;9161;47.348;9.648;2023-04-03T05:06:25;8.50;;;5.23;;
18072;SDS011;9161;47.348;9.648;2023-04-03T05:11:54;8.37;;;5.37;;
18072;SDS011;9161;47.348;9.648;2023-04-03T05:16:57;10.80;;;5.67;;
18072;SDS011;9161;47.348;9.648;2023-04-03T05:22:01;10.03;;;6.43;;
18072;SDS011;9161;47.348;9.648;2023-04-03T05:27:03;8.93;;;5.60;;
18072;SDS011;9161;47.348;9.648;2023-04-03T05:32:05;9.53;;;5.90;;
18072;SDS011;9161;47.348;9.648;2023-04-03T05:37:09;9.50;;;5.40;;
18072;SDS011;9161;47.348;9.648;2023-04-03T05:42:11;9.97;;;6.03;;
18072;SDS011;9161;47.348;9.648;2023-04-03T05:47:14;10.73;;;6.03;;
18072;SDS011;9161;47.348;9.648;2023-04-03T05:52:20;11.93;;;6.20;;
18072;SDS011;9161;47.348;9.648;2023-04-03T05:57:24;8.20;;;5.77;;
18072;SDS011;9161;47.348;9.648;2023-04-03T06:02:26;9.63;;;6.00;;
18072;SDS011;9161;47.348;9.648;2023-04-03T06:07:30;10.83;;;6.23;;
18072;SDS011;9161;47.348;9.648;2023-04-03T06:12:33;11.53;;;6.20;;
18072;SDS011;9161;47.348;9.648;2023-04-03T06:17:35;11.43;;;7.40;;
18072;SDS011;9161;47.348;9.648;2023-04-03T06:22:39;11.93;;;6.67;;
18072;SDS011;9161;47.348;9.648;2023-04-03T06:27:42;10.80;;;6.80;;
18072;SDS011;9161;47.348;9.648;2023-04-03T06:32:44;15.10;;;7.33;;
18072;SDS011;9161;47.348;9.648;2023-04-03T06:37:48;16.87;;;7.50;;
18072;SDS011;9161;47.348;9.648;2023-04-03T06:42:53;13.07;;;7.57;;
18072;SDS011;9161;47.348;9.648;2023-04-03T06:47:55;11.40;;;7.20;;
18072;SDS011;9161;47.348;9.648;2023-04-03T06:52:58;13.10;;;7.67;;
18072;SDS011;9161;47.348;9.648;2023-04-03T06:58:01;11.60;;;7.13;;
18072;SDS011;9161;47.348;9.648;2023-04-03T07:03:04;11.33;;;6.67;;
18072;SDS011;9161;47.348;9.648;2023-04-03T07:08:08;15.77;;;6.80;;
18072;SDS011;9161;47.348;9.648;2023-04-03T07:13:10;11.17;;;6.57;;
18072;SDS011;9161;47.348;9.648;2023-04-03T07:18:13;12.33;;;7.00;;
18072;SDS011;9161;47.348;9.648;2023-04-03T07:23:18;11.47;;;6.97;;
18072;SDS011;9161;47.348;9.648;2023-04-03T07:28:20;10.90;;;6.53;;
18072;SDS011;9161;47.348;9.648;2023-04-03T07:33:23;10.17;;;6.30;;
18072;SDS011;9161;47.348;9.648;2023-04-03T07:38:27;10.07;;;6.47;;
18072;SDS011;9161;47.348;9.648;2023-04-03T07:43:30;11.03;;;6.07;;
18072;SDS011;9161;47.348;9.648;2023-04-03T07:48:33;13.47;;;7.53;;
18072;SDS011;9161;47.348;9.648;2023-04-03T07:53:36;13.23;;;6.53;;
18072;SDS011;9161;47.348;9.648;2023-04-03T07:58:39;14.77;;;7.07;;
18072;SDS011;9161;47.348;9.648;2023-04-03T08:03:41;10.83;;;6.80;;
18072;SDS011;9161;47.348;9.648;2023-04-03T08:08:45;11.10;;;6.93;;
18072;SDS011;9161;47.348;9.648;2023-04-03T08:13:47;11.23;;;6.60;;
18072;SDS011;9161;47.348;9.648;2023-04-03T08:18:51;11.73;;;6.73;;
18072;SDS011;9161;47.348;9.648;2023-04-03T08:23:55;13.07;;;6.50;;
18072;SDS011;9161;47.348;9.648;2023-04-03T08:28:57;10.40;;;6.43;;
18072;SDS011;9161;47.348;9.648;2023-04-03T08:33:59;13.50;;;7.20;;
18072;SDS011;9161;47.348;9.648;2023-04-03T08:39:03;9.83;;;6.13;;
18072;SDS011;9161;47.348;9.648;2023-04-03T08:49:27;10.57;;;7.00;;
18072;SDS011;9161;47.348;9.648;2023-04-03T08:54:34;10.47;;;6.60;;
18072;SDS011;9161;47.348;9.648;2023-04-03T08:59:41;9.43;;;6.10;;
18072;SDS011;9161;47.348;9.648;2023-04-03T09:04:43;11.70;;;5.97;;
18072;SDS011;9161;47.348;9.648;2023-04-03T09:09:47;9.90;;;5.70;;
18072;SDS011;9161;47.348;9.648;2023-04-03T09:14:54;9.63;;;5.50;;
18072;SDS011;9161;47.348;9.648;2023-04-03T09:20:02;9.33;;;5.90;;
18072;SDS011;9161;47.348;9.648;2023-04-03T09:25:15;9.70;;;5.27;;
18072;SDS011;9161;47.348;9.648;2023-04-03T09:30:22;8.77;;;5.67;;
18072;SDS011;9161;47.348;9.648;2023-04-03T09:35:26;8.23;;;5.53;;
18072;SDS011;9161;47.348;9.648;2023-04-03T09:40:48;7.53;;;5.23;;
18072;SDS011;9161;47.348;9.648;2023-04-03T09:45:53;9.70;;;5.37;;
18072;SDS011;9161;47.348;9.648;2023-04-03T09:50:58;8.90;;;5.57;;
18072;SDS011;9161;47.348;9.648;2023-04-03T09:56:03;12.30;;;5.43;;
18072;SDS011;9161;47.348;9.648;2023-04-03T10:01:22;9.07;;;5.13;;
18072;SDS011;9161;47.348;9.648;2023-04-03T10:06:29;13.87;;;5.60;;
18072;SDS011;9161;47.348;9.648;2023-04-03T10:11:35;7.60;;;5.00;;
18072;SDS011;9161;47.348;9.648;2023-04-03T10:16:38;8.83;;;5.00;;
18072;SDS011;9161;47.348;9.648;2023-04-03T10:21:48;8.07;;;4.90;;
18072;SDS011;9161;47.348;9.648;2023-04-03T10:26:57;8.93;;;4.93;;
18072;SDS011;9161;47.348;9.648;2023-04-03T10:32:08;7.90;;;4.77;;
18072;SDS011;9161;47.348;9.648;2023-04-03T10:37:24;8.00;;;4.87;;
18072;SDS011;9161;47.348;9.648;2023-04-03T10:42:32;5.73;;;4.03;;
18072;SDS011;9161;47.348;9.648;2023-04-03T10:47:42;7.10;;;4.23;;
18072;SDS011;9161;47.348;9.648;2023-04-03T10:52:52;5.33;;;3.63;;
18072;SDS011;9161;47.348;9.648;2023-04-03T10:58:01;5.03;;;3.27;;
18072;SDS011;9161;47.348;9.648;2023-04-03T11:03:06;5.10;;;3.40;;
18072;SDS011;9161;47.348;9.648;2023-04-03T11:08:17;4.83;;;3.03;;
18072;SDS011;9161;47.348;9.648;2023-04-03T11:13:30;4.87;;;3.13;;
18072;SDS011;9161;47.348;9.648;2023-04-03T11:18:39;5.23;;;3.30;;
18072;SDS011;9161;47.348;9.648;2023-04-03T11:23:45;5.60;;;3.67;;
18072;SDS011;9161;47.348;9.648;2023-04-03T11:28:53;4.63;;;3.23;;
18072;SDS011;9161;47.348;9.648;2023-04-03T11:34:03;5.17;;;3.00;;
18072;SDS011;9161;47.348;9.648;2023-04-03T11:39:16;5.67;;;3.00;;
18072;SDS011;9161;47.348;9.648;2023-04-03T11:44:27;7.77;;;3.57;;
18072;SDS011;9161;47.348;9.648;2023-04-03T11:49:53;5.07;;;3.13;;
18072;SDS011;9161;47.348;9.648;2023-04-03T11:54:58;5.97;;;3.33;;
18072;SDS011;9161;47.348;9.648;2023-04-03T12:00:41;7.37;;;3.50;;
18072;SDS011;9161;47.348;9.648;2023-04-03T12:05:46;6.03;;;3.37;;
18072;SDS011;9161;47.348;9.648;2023-04-03T12:16:20;8.20;;;4.27;;
18072;SDS011;9161;47.348;9.648;2023-04-03T12:21:25;5.37;;;3.30;;
18072;SDS011;9161;47.348;9.648;2023-04-03T12:32:44;7.20;;;3.63;;
18072;SDS011;9161;47.348;9.648;2023-04-03T12:44:13;4.27;;;2.73;;
18072;SDS011;9161;47.348;9.648;2023-04-03T12:49:42;5.17;;;2.87;;
18072;SDS011;9161;47.348;9.648;2023-04-03T12:54:45;3.30;;;2.40;;
18072;SDS011;9161;47.348;9.648;2023-04-03T12:59:50;4.07;;;2.70;;
18072;SDS011;9161;47.348;9.648;2023-04-03T13:04:53;4.57;;;2.43;;
18072;SDS011;9161;47.348;9.648;2023-04-03T13:09:59;5.13;;;2.40;;
18072;SDS011;9161;47.348;9.648;2023-04-03T13:15:11;4.33;;;2.33;;
18072;SDS011;9161;47.348;9.648;2023-04-03T13:20:18;3.27;;;2.07;;
18072;SDS011;9161;47.348;9.648;2023-04-03T13:25:24;3.13;;;2.27;;
18072;SDS011;9161;47.348;9.648;2023-04-03T13:30:31;2.10;;;1.57;;
18072;SDS011;9161;47.348;9.648;2023-04-03T13:35:36;3.07;;;1.87;;
18072;SDS011;9161;47.348;9.648;2023-04-03T13:40:46;3.10;;;1.73;;
18072;SDS011;9161;47.348;9.648;2023-04-03T13:45:55;3.50;;;1.90;;
18072;SDS011;9161;47.348;9.648;2023-04-03T13:51:00;1.83;;;1.40;;
18072;SDS011;9161;47.348;9.648;2023-04-03T13:56:06;2.53;;;1.77;;
18072;SDS011;9161;47.348;9.648;2023-04-03T14:01:15;2.80;;;1.90;;
18072;SDS011;9161;47.348;9.648;2023-04-03T14:06:21;2.77;;;1.60;;
18072;SDS011;9161;47.348;9.648;2023-04-03T14:11:25;2.43;;;1.57;;
18072;SDS011;9161;47.348;9.648;2023-04-03T14:16:32;2.30;;;1.83;;
18072;SDS011;9161;47.348;9.648;2023-04-03T14:21:39;2.60;;;1.63;;
18072;SDS011;9161;47.348;9.648;2023-04-03T14:26:41;3.50;;;1.73;;
18072;SDS011;9161;47.348;9.648;2023-04-03T14:31:45;4.03;;;2.10;;
18072;SDS011;9161;47.348;9.648;2023-04-03T14:36:49;3.03;;;1.97;;
18072;SDS011;9161;47.348;9.648;2023-04-03T14:41:52;2.67;;;1.67;;
18072;SDS011;9161;47.348;9.648;2023-04-03T14:46:56;3.07;;;2.00;;
18072;SDS011;9161;47.348;9.648;2023-04-03T14:51:58;2.33;;;1.63;;
18072;SDS011;9161;47.348;9.648;2023-04-03T14:57:00;3.07;;;1.90;;
18072;SDS011;9161;47.348;9.648;2023-04-03T15:02:09;2.23;;;1.90;;
18072;SDS011;9161;47.348;9.648;2023-04-03T15:07:25;3.40;;;1.90;;
18072;SDS011;9161;47.348;9.648;2023-04-03T15:12:29;3.60;;;2.00;;
18072;SDS011;9161;47.348;9.648;2023-04-03T15:17:33;3.90;;;1.93;;
18072;SDS011;9161;47.348;9.648;2023-04-03T15:22:37;2.77;;;1.93;;
18072;SDS011;9161;47.348;9.648;2023-04-03T15:27:39;4.40;;;2.40;;
18072;SDS011;9161;47.348;9.648;2023-04-03T15:32:43;3.17;;;1.90;;
18072;SDS011;9161;47.348;9.648;2023-04-03T15:37:46;3.97;;;2.07;;
18072;SDS011;9161;47.348;9.648;2023-04-03T15:42:49;5.67;;;3.07;;
18072;SDS011;9161;47.348;9.648;2023-04-03T15:47:54;13.00;;;6.17;;
18072;SDS011;9161;47.348;9.648;2023-04-03T15:52:57;7.93;;;4.00;;
18072;SDS011;9161;47.348;9.648;2023-04-03T15:58:01;6.20;;;2.20;;
18072;SDS011;9161;47.348;9.648;2023-04-03T16:03:07;7.83;;;3.33;;
18072;SDS011;9161;47.348;9.648;2023-04-03T16:08:12;6.43;;;2.90;;
18072;SDS011;9161;47.348;9.648;2023-04-03T16:13:15;7.00;;;2.83;;
18072;SDS011;9161;47.348;9.648;2023-04-03T16:18:19;5.47;;;2.53;;
18072;SDS011;9161;47.348;9.648;2023-04-03T16:23:22;3.73;;;2.30;;
18072;SDS011;9161;47.348;9.648;2023-04-03T16:28:25;3.07;;;2.20;;
18072;SDS011;9161;47.348;9.648;2023-04-03T16:33:28;4.43;;;2.20;;
18072;SDS011;9161;47.348;9.648;2023-04-03T16:38:32;4.23;;;2.40;;
18072;SDS011;9161;47.348;9.648;2023-04-03T16:43:34;4.43;;;2.83;;
18072;SDS011;9161;47.348;9.648;2023-04-03T16:48:39;4.83;;;2.50;;
18072;SDS011;9161;47.348;9.648;2023-04-03T16:53:41;3.87;;;2.30;;
18072;SDS011;9161;47.348;9.648;2023-04-03T16:58:43;4.50;;;2.67;;
18072;SDS011;9161;47.348;9.648;2023-04-03T17:03:48;3.77;;;2.30;;
18072;SDS011;9161;47.348;9.648;2023-04-03T17:08:51;5.27;;;2.63;;
18072;SDS011;9161;47.348;9.648;2023-04-03T17:13:54;4.47;;;2.97;;
18072;SDS011;9161;47.348;9.648;2023-04-03T17:18:58;3.17;;;2.10;;
18072;SDS011;9161;47.348;9.648;2023-04-03T17:24:02;4.03;;;2.57;;
18072;SDS011;9161;47.348;9.648;2023-04-03T17:29:08;4.43;;;2.63;;
18072;SDS011;9161;47.348;9.648;2023-04-03T17:34:12;5.80;;;2.80;;
18072;SDS011;9161;47.348;9.648;2023-04-03T17:39:15;8.47;;;2.67;;
18072;SDS011;9161;47.348;9.648;2023-04-03T17:44:18;4.80;;;2.83;;
18072;SDS011;9161;47.348;9.648;2023-04-03T17:49:22;4.60;;;2.70;;
18072;SDS011;9161;47.348;9.648;2023-04-03T17:54:24;4.53;;;2.70;;
18072;SDS011;9161;47.348;9.648;2023-04-03T17:59:28;3.73;;;2.37;;
18072;SDS011;9161;47.348;9.648;2023-04-03T18:04:33;6.33;;;2.83;;
18072;SDS011;9161;47.348;9.648;2023-04-03T18:09:36;5.60;;;2.80;;
18072;SDS011;9161;47.348;9.648;2023-04-03T18:14:42;3.53;;;2.43;;
18072;SDS011;9161;47.348;9.648;2023-04-03T18:19:47;4.27;;;2.50;;
18072;SDS011;9161;47.348;9.648;2023-04-03T18:24:51;4.13;;;2.47;;
18072;SDS011;9161;47.348;9.648;2023-04-03T18:29:56;4.27;;;2.37;;
18072;SDS011;9161;47.348;9.648;2023-04-03T18:35:06;3.70;;;2.13;;
18072;SDS011;9161;47.348;9.648;2023-04-03T18:40:12;4.13;;;2.37;;
18072;SDS011;9161;47.348;9.648;2023-04-03T18:45:16;5.80;;;2.43;;
18072;SDS011;9161;47.348;9.648;2023-04-03T18:50:29;5.27;;;2.50;;
18072;SDS011;9161;47.348;9.648;2023-04-03T18:55:32;4.17;;;2.27;;
18072;SDS011;9161;47.348;9.648;2023-04-03T19:00:42;3.50;;;2.17;;
18072;SDS011;9161;47.348;9.648;2023-04-03T19:05:47;5.87;;;2.30;;
18072;SDS011;9161;47.348;9.648;2023-04-03T19:10:59;4.40;;;2.73;;
18072;SDS011;9161;47.348;9.648;2023-04-03T19:16:03;4.70;;;2.40;;
18072;SDS011;9161;47.348;9.648;2023-04-03T19:21:08;4.10;;;2.33;;
18072;SDS011;9161;47.348;9.648;2023-04-03T19:26:15;6.63;;;2.77;;
18072;SDS011;9161;47.348;9.648;2023-04-03T19:31:19;4.50;;;2.60;;
18072;SDS011;9161;47.348;9.648;2023-04-03T19:36:27;3.60;;;2.40;;
18072;SDS011;9161;47.348;9.648;2023-04-03T19:41:30;3.97;;;2.17;;
18072;SDS011;9161;47.348;9.648;2023-04-03T19:46:37;3.20;;;2.10;;
18072;SDS011;9161;47.348;9.648;2023-04-03T19:51:52;5.67;;;2.30;;
18072;SDS011;9161;47.348;9.648;2023-04-03T19:56:56;4.37;;;1.90;;
18072;SDS011;9161;47.348;9.648;2023-04-03T20:02:00;4.60;;;2.30;;
18072;SDS011;9161;47.348;9.648;2023-04-03T20:07:05;6.47;;;1.93;;
18072;SDS011;9161;47.348;9.648;2023-04-03T20:12:08;5.07;;;1.97;;
18072;SDS011;9161;47.348;9.648;2023-04-03T20:17:11;3.40;;;1.97;;
18072;SDS011;9161;47.348;9.648;2023-04-03T20:22:16;3.10;;;2.00;;
18072;SDS011;9161;47.348;9.648;2023-04-03T20:27:19;4.50;;;1.80;;
18072;SDS011;9161;47.348;9.648;2023-04-03T20:32:22;7.83;;;2.33;;
18072;SDS011;9161;47.348;9.648;2023-04-03T20:37:28;4.47;;;2.00;;
18072;SDS011;9161;47.348;9.648;2023-04-03T20:42:33;2.87;;;1.90;;
18072;SDS011;9161;47.348;9.648;2023-04-03T20:47:36;3.60;;;1.90;;
18072;SDS011;9161;47.348;9.648;2023-04-03T20:52:39;2.40;;;1.63;;
18072;SDS011;9161;47.348;9.648;2023-04-03T20:57:43;2.93;;;1.63;;
18072;SDS011;9161;47.348;9.648;2023-04-03T21:02:54;3.83;;;2.27;;
18072;SDS011;9161;47.348;9.648;2023-04-03T21:19:20;3.43;;;1.60;;
18072;SDS011;9161;47.348;9.648;2023-04-03T21:24:23;2.93;;;1.60;;
18072;SDS011;9161;47.348;9.648;2023-04-03T21:29:26;4.03;;;1.57;;
18072;SDS011;9161;47.348;9.648;2023-04-03T21:34:29;3.47;;;1.80;;
18072;SDS011;9161;47.348;9.648;2023-04-03T21:39:32;5.20;;;1.80;;
18072;SDS011;9161;47.348;9.648;2023-04-03T21:44:35;4.10;;;1.70;;
18072;SDS011;9161;47.348;9.648;2023-04-03T21:49:39;4.43;;;1.73;;
18072;SDS011;9161;47.348;9.648;2023-04-03T21:54:42;4.23;;;1.80;;
18072;SDS011;9161;47.348;9.648;2023-04-03T21:59:47;3.27;;;1.80;;
18072;SDS011;9161;47.348;9.648;2023-04-03T22:04:51;4.87;;;2.20;;
18072;SDS011;9161;47.348;9.648;2023-04-03T22:09:54;5.73;;;2.27;;
18072;SDS011;9161;47.348;9.648;2023-04-03T22:14:57;6.83;;;2.33;;
18072;SDS011;9161;47.348;9.648;2023-04-03T22:20:01;4.10;;;1.93;;
18072;SDS011;9161;47.348;9.648;2023-04-03T22:25:04;4.17;;;1.90;;
18072;SDS011;9161;47.348;9.648;2023-04-03T22:30:07;3.47;;;1.73;;
18072;SDS011;9161;47.348;9.648;2023-04-03T22:35:12;4.53;;;2.20;;
18072;SDS011;9161;47.348;9.648;2023-04-03T22:40:15;3.50;;;1.67;;
18072;SDS011;9161;47.348;9.648;2023-04-03T22:45:18;6.53;;;2.17;;
18072;SDS011;9161;47.348;9.648;2023-04-03T22:50:23;6.00;;;2.90;;
18072;SDS011;9161;47.348;9.648;2023-04-03T22:55:25;5.23;;;2.20;;
18072;SDS011;9161;47.348;9.648;2023-04-03T23:00:27;4.77;;;2.20;;
18072;SDS011;9161;47.348;9.648;2023-04-03T23:05:31;5.63;;;2.33;;
18072;SDS011;9161;47.348;9.648;2023-04-03T23:10:33;5.53;;;2.33;;
18072;SDS011;9161;47.348;9.648;2023-04-03T23:15:36;3.50;;;2.03;;
18072;SDS011;9161;47.348;9.648;2023-04-03T23:20:40;3.87;;;2.10;;
18072;SDS011;9161;47.348;9.648;2023-04-03T23:25:42;5.17;;;2.40;;
18072;SDS011;9161;47.348;9.648;2023-04-03T23:30:44;4.53;;;2.40;;
18072;SDS011;9161;47.348;9.648;2023-04-03T23:35:48;3.53;;;2.20;;
18072;SDS011;9161;47.348;9.648;2023-04-03T23:40:54;5.77;;;2.70;;
18072;SDS011;9161;47.348;9.648;2023-04-03T23:45:56;5.50;;;2.93;;
18072;SDS011;9161;47.348;9.648;2023-04-03T23:51:00;7.63;;;2.57;;
18072;SDS011;9161;47.348;9.648;2023-04-03T23:56:03;3.77;;;2.50;;
